createdAt,value
2022-12-20T00:00:00.131Z,96412.00
2022-12-20T00:02:02.463Z,96411.13
2022-12-20T00:04:08.175Z,96413.91
2022-12-20T00:06:11.235Z,96416.34
2022-12-20T00:08:13.598Z,96413.00
2022-12-20T00:10:15.269Z,96423.31
2022-12-20T00:12:17.463Z,96413.63
2022-12-20T00:14:19.259Z,96417.72
2022-12-20T00:16:24.630Z,96427.22
2022-12-20T00:18:26.358Z,96427.09
2022-12-20T00:20:28.559Z,96436.47
2022-12-20T00:22:31.278Z,96421.03
2022-12-20T00:24:33.173Z,96432.09
2022-12-20T00:26:35.969Z,96431.84
2022-12-20T00:28:38.884Z,96437.59
2022-12-20T00:30:40.593Z,96439.25
2022-12-20T00:32:42.879Z,96426.19
2022-12-20T00:34:44.643Z,96434.78
2022-12-20T00:36:46.390Z,96430.53
2022-12-20T00:38:50.051Z,96426.84
2022-12-20T00:41:13.349Z,96425.13
2022-12-20T00:43:15.038Z,96419.34
2022-12-20T00:45:16.840Z,96419.41
2022-12-20T00:47:18.653Z,96417.06
2022-12-20T00:49:20.465Z,96425.00
2022-12-20T00:51:26.250Z,96425.78
2022-12-20T00:53:28.705Z,96423.75
2022-12-20T00:55:30.331Z,96422.66
2022-12-20T00:57:33.387Z,96416.44
2022-12-20T00:59:36.531Z,96425.81
2022-12-20T01:01:38.201Z,96432.09
2022-12-20T01:03:40.204Z,96431.50
2022-12-20T01:05:54.411Z,96432.63
2022-12-20T01:07:56.043Z,96425.56
2022-12-20T01:09:57.693Z,96423.66
2022-12-20T01:11:59.395Z,96425.28
2022-12-20T01:14:06.041Z,96422.78
2022-12-20T01:16:09.891Z,96414.84
2022-12-20T01:18:11.428Z,96410.50
2022-12-20T01:20:13.331Z,96409.88
2022-12-20T01:22:14.939Z,96410.88
2022-12-20T01:24:18.678Z,96411.66
2022-12-20T01:26:22.912Z,96414.25
2022-12-20T01:28:24.584Z,96407.19
2022-12-20T01:30:26.331Z,96396.16
2022-12-20T01:32:28.140Z,96393.69
2022-12-20T01:34:29.813Z,96399.41
2022-12-20T01:36:36.093Z,96384.16
2022-12-20T01:38:37.985Z,96390.91
2022-12-20T01:40:39.673Z,96392.63
2022-12-20T01:42:41.331Z,96386.72
2022-12-20T01:44:43.066Z,96388.66
2022-12-20T01:46:47.172Z,96380.00
2022-12-20T01:49:16.536Z,96383.09
2022-12-20T01:51:19.307Z,96379.78
2022-12-20T01:53:22.703Z,96379.06
2022-12-20T01:55:25.947Z,96383.19
2022-12-20T01:57:32.137Z,96380.78
2022-12-20T01:59:35.821Z,96379.69
2022-12-20T02:01:37.897Z,96372.63
2022-12-20T02:03:40.629Z,96375.78
2022-12-20T02:05:48.056Z,96375.53
2022-12-20T02:07:54.350Z,96379.81
2022-12-20T02:09:57.450Z,96366.66
2022-12-20T02:12:02.430Z,96370.88
2022-12-20T02:14:10.522Z,96364.88
2022-12-20T02:16:15.709Z,96369.75
2022-12-20T02:18:22.625Z,96373.00
2022-12-20T02:20:48.161Z,96372.34
2022-12-20T02:23:17.019Z,96371.41
2022-12-20T02:25:27.686Z,96370.38
2022-12-20T02:28:14.450Z,96370.84
2022-12-20T02:30:25.005Z,96368.25
2022-12-20T02:32:30.936Z,96366.50
2022-12-20T02:34:34.324Z,96367.38
2022-12-20T02:36:36.330Z,96372.59
2022-12-20T02:38:42.988Z,96369.09
2022-12-20T02:40:45.314Z,96362.91
2022-12-20T02:42:48.661Z,96369.81
2022-12-20T02:45:15.925Z,96361.03
2022-12-20T02:47:41.185Z,96361.28
2022-12-20T02:49:43.233Z,96359.72
2022-12-20T02:51:47.524Z,96365.03
2022-12-20T02:53:49.351Z,96364.31
2022-12-20T02:56:15.189Z,96364.31
2022-12-20T02:58:31.900Z,96356.41
2022-12-20T03:00:38.853Z,96357.78
2022-12-20T03:03:00.069Z,96358.66
2022-12-20T03:05:02.792Z,96353.53
2022-12-20T03:07:07.722Z,96357.03
2022-12-20T03:09:10.541Z,96350.97
2022-12-20T03:11:12.269Z,96350.91
2022-12-20T03:13:14.871Z,96342.19
2022-12-20T03:15:16.688Z,96345.66
2022-12-20T03:17:18.741Z,96338.69
2022-12-20T03:19:20.706Z,96340.22
2022-12-20T03:21:22.506Z,96348.91
2022-12-20T03:23:24.443Z,96349.88
2022-12-20T03:25:26.456Z,96343.25
2022-12-20T03:27:28.247Z,96339.72
2022-12-20T03:29:29.921Z,96347.53
2022-12-20T03:31:31.843Z,96347.59
2022-12-20T03:33:33.759Z,96345.31
2022-12-20T03:35:35.582Z,96343.84
2022-12-20T03:37:37.349Z,96342.03
2022-12-20T03:39:38.982Z,96341.69
2022-12-20T03:41:42.584Z,96343.22
2022-12-20T03:43:45.815Z,96338.00
2022-12-20T03:45:47.841Z,96338.81
2022-12-20T03:47:49.524Z,96340.38
2022-12-20T03:49:52.135Z,96335.31
2022-12-20T03:51:53.878Z,96330.81
2022-12-20T03:53:55.752Z,96338.03
2022-12-20T03:55:57.502Z,96334.63
2022-12-20T03:58:00.359Z,96331.84
2022-12-20T04:00:02.234Z,96337.91
2022-12-20T04:02:04.485Z,96336.28
2022-12-20T04:04:08.397Z,96342.28
2022-12-20T04:06:10.043Z,96338.09
2022-12-20T04:08:12.017Z,96339.22
2022-12-20T04:10:15.298Z,96338.66
2022-12-20T04:12:16.947Z,96332.84
2022-12-20T04:14:18.648Z,96335.38
2022-12-20T04:16:23.045Z,96326.00
2022-12-20T04:18:24.727Z,96328.72
2022-12-20T04:20:26.565Z,96332.19
2022-12-20T04:22:28.178Z,96331.47
2022-12-20T04:24:29.800Z,96333.88
2022-12-20T04:26:31.596Z,96333.09
2022-12-20T04:28:33.718Z,96328.13
2022-12-20T04:30:36.619Z,96327.09
2022-12-20T04:32:38.410Z,96325.94
2022-12-20T04:34:40.082Z,96322.34
2022-12-20T04:36:41.713Z,96319.72
2022-12-20T04:38:43.382Z,96318.88
2022-12-20T04:40:45.007Z,96317.78
2022-12-20T04:42:46.698Z,96318.16
2022-12-20T04:44:49.813Z,96323.28
2022-12-20T04:46:51.620Z,96311.25
2022-12-20T04:48:58.936Z,96313.81
2022-12-20T04:51:01.140Z,96310.31
2022-12-20T04:53:23.862Z,96319.44
2022-12-20T04:55:25.534Z,96318.56
2022-12-20T04:57:27.192Z,96323.56
2022-12-20T04:59:28.887Z,96320.38
2022-12-20T05:01:30.602Z,96316.91
2022-12-20T05:03:32.435Z,96318.91
2022-12-20T05:05:34.205Z,96317.16
2022-12-20T05:07:36.969Z,96321.22
2022-12-20T05:09:38.833Z,96310.19
2022-12-20T05:11:40.557Z,96311.63
2022-12-20T05:13:42.309Z,96317.63
2022-12-20T05:15:44.080Z,96322.88
2022-12-20T05:17:45.908Z,96312.66
2022-12-20T05:19:47.888Z,96313.38
2022-12-20T05:22:07.768Z,96315.47
2022-12-20T05:24:28.312Z,96322.41
2022-12-20T05:26:32.952Z,96328.59
2022-12-20T05:28:34.729Z,96327.94
2022-12-20T05:30:36.442Z,96328.31
2022-12-20T05:32:38.389Z,96328.84
2022-12-20T05:34:40.062Z,96326.16
2022-12-20T05:36:41.741Z,96327.84
2022-12-20T05:38:43.391Z,96323.56
2022-12-20T05:40:47.950Z,96326.75
2022-12-20T05:42:49.579Z,96326.00
2022-12-20T05:44:51.669Z,96337.28
2022-12-20T05:46:53.423Z,96329.69
2022-12-20T05:48:55.277Z,96338.25
2022-12-20T05:50:56.944Z,96332.22
2022-12-20T05:52:58.577Z,96333.94
2022-12-20T05:55:02.407Z,96337.47
2022-12-20T05:57:04.137Z,96335.69
2022-12-20T05:59:06.082Z,96335.22
2022-12-20T06:01:10.416Z,96336.59
2022-12-20T06:03:12.326Z,96326.28
2022-12-20T06:05:13.998Z,96340.06
2022-12-20T06:07:15.609Z,96339.22
2022-12-20T06:09:17.323Z,96340.41
2022-12-20T06:11:20.361Z,96336.94
2022-12-20T06:13:24.829Z,96333.41
2022-12-20T06:15:27.832Z,96336.00
2022-12-20T06:17:29.485Z,96334.25
2022-12-20T06:19:31.229Z,96331.31
2022-12-20T06:21:32.913Z,96348.41
2022-12-20T06:23:34.621Z,96334.63
2022-12-20T06:25:38.329Z,96334.53
2022-12-20T06:27:39.989Z,96335.22
2022-12-20T06:29:41.801Z,96333.97
2022-12-20T06:31:43.973Z,96330.81
2022-12-20T06:33:45.688Z,96329.41
2022-12-20T06:35:47.497Z,96327.56
2022-12-20T06:37:49.137Z,96320.09
2022-12-20T06:39:50.815Z,96317.44
2022-12-20T06:41:52.516Z,96323.69
2022-12-20T06:43:54.225Z,96322.09
2022-12-20T06:45:57.501Z,96316.69
2022-12-20T06:47:59.239Z,96321.34
2022-12-20T06:50:00.892Z,96308.84
2022-12-20T06:52:02.537Z,96310.06
2022-12-20T06:54:04.220Z,96311.13
2022-12-20T06:56:06.261Z,96319.78
2022-12-20T06:58:07.929Z,96319.38
2022-12-20T07:00:10.563Z,96313.00
2022-12-20T07:02:12.768Z,96306.06
2022-12-20T07:04:14.560Z,96304.31
2022-12-20T07:06:16.533Z,96301.94
2022-12-20T07:08:18.118Z,96307.31
2022-12-20T07:10:19.807Z,96303.63
2022-12-20T07:12:22.295Z,96304.63
2022-12-20T07:14:24.352Z,96300.22
2022-12-20T07:16:29.242Z,96298.91
2022-12-20T07:18:31.643Z,96299.50
2022-12-20T07:20:34.857Z,96301.69
2022-12-20T07:22:36.640Z,96302.91
2022-12-20T07:24:39.288Z,96302.19
2022-12-20T07:26:41.214Z,96300.06
2022-12-20T07:28:43.407Z,96305.94
2022-12-20T07:30:46.613Z,96297.09
2022-12-20T07:32:49.368Z,96301.31
2022-12-20T07:34:51.004Z,96306.72
2022-12-20T07:36:52.754Z,96310.13
2022-12-20T07:38:54.585Z,96306.38
2022-12-20T07:40:56.290Z,96299.13
2022-12-20T07:42:57.959Z,96301.94
2022-12-20T07:44:59.616Z,96308.41
2022-12-20T07:47:01.451Z,96302.59
2022-12-20T07:49:03.138Z,96303.81
2022-12-20T07:51:10.581Z,96298.72
2022-12-20T07:53:12.362Z,96294.41
2022-12-20T07:55:15.285Z,96285.34
2022-12-20T07:57:26.017Z,96282.19
2022-12-20T07:59:31.345Z,96289.34
2022-12-20T08:01:33.192Z,96285.22
2022-12-20T08:03:41.561Z,96287.47
2022-12-20T08:05:46.150Z,96283.97
2022-12-20T08:07:51.137Z,96279.84
2022-12-20T08:09:57.416Z,96277.69
2022-12-20T08:11:59.487Z,96280.38
2022-12-20T08:14:01.546Z,96282.56
2022-12-20T08:16:03.344Z,96278.56
2022-12-20T08:18:06.392Z,96276.41
2022-12-20T08:20:09.025Z,96276.47
2022-12-20T08:22:10.650Z,96270.94
2022-12-20T08:24:12.327Z,96278.56
2022-12-20T08:26:14.381Z,96274.13
2022-12-20T08:28:16.262Z,96266.22
2022-12-20T08:30:19.192Z,96268.00
2022-12-20T08:32:21.440Z,96266.91
2022-12-20T08:34:23.955Z,96264.31
2022-12-20T08:36:26.264Z,96253.97
2022-12-20T08:38:33.979Z,96264.50
2022-12-20T08:40:35.617Z,96256.56
2022-12-20T08:42:37.359Z,96255.88
2022-12-20T08:44:39.582Z,96260.16
2022-12-20T08:46:41.567Z,96255.03
2022-12-20T08:48:43.236Z,96253.75
2022-12-20T08:50:45.606Z,96254.59
2022-12-20T08:52:47.581Z,96254.53
2022-12-20T08:54:49.322Z,96257.19
2022-12-20T08:56:52.343Z,96253.88
2022-12-20T08:58:54.931Z,96250.78
2022-12-20T09:01:06.356Z,96253.91
2022-12-20T09:03:10.227Z,96248.50
2022-12-20T09:05:12.109Z,96244.31
2022-12-20T09:07:13.817Z,96247.56
2022-12-20T09:09:16.565Z,96241.09
2022-12-20T09:11:23.587Z,96233.59
2022-12-20T09:13:25.325Z,96235.47
2022-12-20T09:15:28.152Z,96226.47
2022-12-20T09:17:30.202Z,96229.00
2022-12-20T09:19:32.052Z,96226.41
2022-12-20T09:21:34.871Z,96224.25
2022-12-20T09:23:37.433Z,96213.03
2022-12-20T09:25:39.274Z,96216.19
2022-12-20T09:27:40.955Z,96208.00
2022-12-20T09:29:42.970Z,96205.41
2022-12-20T09:31:45.189Z,96206.09
2022-12-20T09:33:47.100Z,96197.50
2022-12-20T09:35:48.807Z,96194.06
2022-12-20T09:37:50.424Z,96203.84
2022-12-20T09:39:52.242Z,96193.00
2022-12-20T09:41:54.322Z,96192.09
2022-12-20T09:43:57.960Z,96188.34
2022-12-20T09:46:02.658Z,96194.13
2022-12-20T09:48:05.882Z,96188.19
2022-12-20T09:50:08.204Z,96183.56
2022-12-20T09:52:47.180Z,96181.22
2022-12-20T09:55:10.365Z,96174.09
2022-12-20T09:57:22.140Z,96172.16
2022-12-20T09:59:25.238Z,96165.94
2022-12-20T10:01:36.238Z,96173.88
2022-12-20T10:03:40.033Z,96169.75
2022-12-20T10:05:54.750Z,96170.56
2022-12-20T10:08:23.956Z,96162.63
2022-12-20T10:10:45.848Z,96161.19
2022-12-20T10:13:14.422Z,96152.13
2022-12-20T10:15:19.226Z,96146.81
2022-12-20T10:17:44.840Z,96133.75
2022-12-20T10:19:59.409Z,96129.06
2022-12-20T10:22:26.695Z,96118.38
2022-12-20T10:24:31.246Z,96106.03
2022-12-20T10:26:33.420Z,96114.88
2022-12-20T10:28:36.053Z,96092.47
2022-12-20T10:30:37.708Z,96091.72
2022-12-20T10:32:40.271Z,96094.28
2022-12-20T10:34:52.511Z,96088.63
2022-12-20T10:37:14.524Z,96081.38
2022-12-20T10:39:16.231Z,96081.41
2022-12-20T10:41:22.254Z,96073.00
2022-12-20T10:43:25.185Z,96074.56
2022-12-20T10:45:36.660Z,96070.03
2022-12-20T10:47:42.110Z,96062.41
2022-12-20T10:49:43.866Z,96064.03
2022-12-20T10:51:53.116Z,96053.84
2022-12-20T10:53:59.679Z,96051.25
2022-12-20T10:56:21.086Z,96047.59
2022-12-20T10:58:30.380Z,96047.41
2022-12-20T11:00:33.212Z,96045.81
2022-12-20T11:02:42.430Z,96051.34
2022-12-20T11:05:01.040Z,96047.41
2022-12-20T11:07:14.026Z,96042.47
2022-12-20T11:09:33.770Z,96038.63
2022-12-20T11:11:35.600Z,96035.97
2022-12-20T11:13:37.437Z,96030.59
2022-12-20T11:15:49.303Z,96037.72
2022-12-20T11:17:58.537Z,96028.59
2022-12-20T11:20:26.590Z,96019.38
2022-12-20T11:22:43.475Z,96025.06
2022-12-20T11:25:12.750Z,96014.75
2022-12-20T11:27:24.462Z,96011.22
2022-12-20T11:30:11.352Z,96008.63
2022-12-20T11:32:48.656Z,96006.94
2022-12-20T11:35:20.956Z,96002.94
2022-12-20T11:37:27.079Z,95998.47
2022-12-20T11:39:48.864Z,96000.81
2022-12-20T11:42:01.160Z,95992.72
2022-12-20T11:44:25.158Z,95988.06
2022-12-20T11:46:40.972Z,95985.16
2022-12-20T11:48:54.263Z,95986.91
2022-12-20T11:51:07.576Z,95983.06
2022-12-20T11:53:20.418Z,95981.81
2022-12-20T11:55:27.669Z,95983.50
2022-12-20T11:57:54.891Z,95986.41
2022-12-20T11:59:59.041Z,95983.44
2022-12-20T12:02:23.389Z,95979.56
2022-12-20T12:04:31.792Z,95977.59
2022-12-20T12:06:40.100Z,95974.44
2022-12-20T12:08:47.100Z,95968.13
2022-12-20T12:11:32.271Z,95967.63
2022-12-20T12:13:36.571Z,95967.91
2022-12-20T12:15:48.775Z,95972.25
2022-12-20T12:18:06.086Z,95969.66
2022-12-20T12:20:25.795Z,95958.75
2022-12-20T12:22:33.364Z,95964.69
2022-12-20T12:24:43.984Z,95957.56
2022-12-20T12:26:45.681Z,95962.06
2022-12-20T12:28:58.375Z,95951.50
2022-12-20T12:31:07.269Z,95955.94
2022-12-20T12:33:22.145Z,95950.06
2022-12-20T12:35:35.003Z,95957.88
2022-12-20T12:37:51.401Z,95956.06
2022-12-20T12:40:37.128Z,95956.59
2022-12-20T12:43:06.853Z,95951.22
2022-12-20T12:45:29.341Z,95947.19
2022-12-20T12:47:39.212Z,95946.66
2022-12-20T12:49:41.217Z,95948.91
2022-12-20T12:51:50.169Z,95949.03
2022-12-20T12:53:54.115Z,95950.16
2022-12-20T12:56:12.887Z,95948.81
2022-12-20T12:58:23.560Z,95948.59
2022-12-20T13:00:59.370Z,95945.91
2022-12-20T13:03:06.074Z,95936.78
2022-12-20T13:05:10.626Z,95930.53
2022-12-20T13:07:33.959Z,95925.19
2022-12-20T13:09:37.834Z,95931.72
2022-12-20T13:11:46.235Z,95928.50
2022-12-20T13:13:48.684Z,95917.88
2022-12-20T13:15:51.545Z,95915.84
2022-12-20T13:18:00.530Z,95910.00
2022-12-20T13:20:02.318Z,95914.97
2022-12-20T13:22:13.388Z,95916.56
2022-12-20T13:24:38.242Z,95920.59
2022-12-20T13:26:51.060Z,95922.28
2022-12-20T13:28:53.008Z,95923.03
2022-12-20T13:31:04.907Z,95918.47
2022-12-20T13:33:25.879Z,95917.91
2022-12-20T13:35:47.778Z,95906.69
2022-12-20T13:38:04.086Z,95910.31
2022-12-20T13:40:06.719Z,95908.75
2022-12-20T13:42:34.474Z,95912.63
2022-12-20T13:44:41.505Z,95912.63
2022-12-20T13:46:46.843Z,95910.03
2022-12-20T13:48:54.232Z,95914.63
2022-12-20T13:50:57.030Z,95900.16
2022-12-20T13:52:59.231Z,95916.06
2022-12-20T13:55:05.529Z,95908.13
2022-12-20T13:57:08.096Z,95912.72
2022-12-20T13:59:32.332Z,95912.81
2022-12-20T14:01:36.215Z,95910.38
2022-12-20T14:03:48.138Z,95904.22
2022-12-20T14:06:01.699Z,95899.41
2022-12-20T14:08:20.453Z,95892.13
2022-12-20T14:10:27.774Z,95892.31
2022-12-20T14:12:36.511Z,95894.91
2022-12-20T14:14:49.879Z,95886.69
2022-12-20T14:16:51.636Z,95885.28
2022-12-20T14:19:05.310Z,95885.72
2022-12-20T14:21:07.383Z,95882.25
2022-12-20T14:23:18.826Z,95883.13
2022-12-20T14:25:30.259Z,95884.50
2022-12-20T14:27:34.948Z,95882.31
2022-12-20T14:29:37.685Z,95885.28
2022-12-20T14:31:42.064Z,95889.00
2022-12-20T14:33:43.820Z,95878.53
2022-12-20T14:35:49.580Z,95879.53
2022-12-20T14:38:19.263Z,95875.00
2022-12-20T14:40:21.573Z,95866.59
2022-12-20T14:42:23.378Z,95870.31
2022-12-20T14:44:28.358Z,95877.16
2022-12-20T14:46:31.211Z,95867.50
2022-12-20T14:48:32.949Z,95872.06
2022-12-20T14:50:36.599Z,95876.97
2022-12-20T14:52:39.513Z,95871.13
2022-12-20T14:57:12.516Z,95863.53
2022-12-20T14:59:18.326Z,95857.72
2022-12-20T15:01:27.782Z,95861.22
2022-12-20T15:03:29.913Z,95865.88
2022-12-20T15:05:40.974Z,95858.72
2022-12-20T15:07:42.682Z,95856.41
2022-12-20T15:09:44.373Z,95859.00
2022-12-20T15:11:46.865Z,95854.94
2022-12-20T15:13:52.543Z,95856.91
2022-12-20T15:15:54.261Z,95860.69
2022-12-20T15:17:57.204Z,95857.19
2022-12-20T15:19:59.552Z,95859.78
2022-12-20T15:22:02.007Z,95858.28
2022-12-20T15:24:10.262Z,95862.72
2022-12-20T15:26:15.386Z,95864.38
2022-12-20T15:28:22.743Z,95866.97
2022-12-20T15:30:24.578Z,95862.59
2022-12-20T15:32:29.746Z,95865.03
2022-12-20T15:34:36.590Z,95859.94
2022-12-20T15:36:38.742Z,95856.88
2022-12-20T15:39:10.768Z,95871.97
2022-12-20T15:41:06.528Z,95867.69
2022-12-20T15:43:12.629Z,95862.69
2022-12-20T15:45:14.778Z,95858.34
2022-12-20T15:47:16.976Z,95863.44
2022-12-20T15:49:41.974Z,95856.59
2022-12-20T15:51:49.403Z,95859.19
2022-12-20T15:53:51.196Z,95856.59
2022-12-20T15:55:54.139Z,95852.88
2022-12-20T15:57:55.745Z,95851.31
2022-12-20T16:00:01.023Z,95841.56
2022-12-20T16:02:03.826Z,95852.59
2022-12-20T16:04:06.492Z,95851.78
2022-12-20T16:06:13.099Z,95847.69
2022-12-20T16:08:16.491Z,95847.78
2022-12-20T16:10:18.326Z,95847.84
2022-12-20T16:12:24.761Z,95848.72
2022-12-20T16:14:27.661Z,95847.84
2022-12-20T16:16:32.083Z,95847.09
2022-12-20T16:18:34.921Z,95849.97
2022-12-20T16:20:37.069Z,95849.34
2022-12-20T16:22:38.740Z,95854.88
2022-12-20T16:24:40.782Z,95848.84
2022-12-20T16:26:43.263Z,95854.56
2022-12-20T16:28:45.745Z,95846.13
2022-12-20T16:30:52.953Z,95845.41
2022-12-20T16:32:55.387Z,95850.94
2022-12-20T16:34:57.052Z,95833.97
2022-12-20T16:36:58.707Z,95830.47
2022-12-20T16:39:00.384Z,95832.75
2022-12-20T16:41:18.486Z,95830.06
2022-12-20T16:43:20.092Z,95836.97
2022-12-20T16:45:24.360Z,95828.22
2022-12-20T16:47:26.457Z,95829.63
2022-12-20T16:49:28.368Z,95832.06
2022-12-20T16:51:35.724Z,95826.88
2022-12-20T16:54:02.181Z,95818.50
2022-12-20T16:55:59.198Z,95829.81
2022-12-20T16:58:00.987Z,95821.84
2022-12-20T17:00:03.096Z,95823.53
2022-12-20T17:02:27.511Z,95820.53
2022-12-20T17:04:29.342Z,95825.31
2022-12-20T17:06:31.239Z,95809.47
2022-12-20T17:10:53.008Z,95817.59
2022-12-20T17:12:55.290Z,95822.66
2022-12-20T17:14:57.039Z,95809.56
2022-12-20T17:16:58.773Z,95813.72
2022-12-20T17:19:01.525Z,95814.75
2022-12-20T17:21:05.122Z,95813.72
2022-12-20T17:23:10.040Z,95811.97
2022-12-20T17:25:20.780Z,95826.59
2022-12-20T17:27:22.504Z,95815.41
2022-12-20T17:29:24.125Z,95814.41
2022-12-20T17:31:39.581Z,95825.78
2022-12-20T17:33:41.285Z,95824.91
2022-12-20T17:35:43.923Z,95820.75
2022-12-20T17:37:47.864Z,95818.34
2022-12-20T17:39:49.480Z,95822.09
2022-12-20T17:41:52.278Z,95826.03
2022-12-20T17:43:54.755Z,95826.28
2022-12-20T17:45:57.749Z,95829.78
2022-12-20T17:47:59.642Z,95828.56
2022-12-20T17:50:01.331Z,95825.97
2022-12-20T17:52:04.221Z,95830.94
2022-12-20T17:54:05.946Z,95828.09
2022-12-20T17:56:16.294Z,95828.78
2022-12-20T17:58:17.904Z,95833.13
2022-12-20T18:00:23.716Z,95826.00
2022-12-20T18:02:26.317Z,95827.13
2022-12-20T18:04:28.513Z,95828.63
2022-12-20T18:06:32.032Z,95820.81
2022-12-20T18:08:33.765Z,95813.63
2022-12-20T18:10:36.659Z,95820.63
2022-12-20T18:12:39.112Z,95817.78
2022-12-20T18:14:41.004Z,95807.41
2022-12-20T18:16:42.811Z,95818.19
2022-12-20T18:18:44.730Z,95817.56
2022-12-20T18:20:46.454Z,95831.22
2022-12-20T18:22:48.775Z,95819.25
2022-12-20T18:24:50.510Z,95822.69
2022-12-20T18:26:53.472Z,95813.47
2022-12-20T18:29:02.236Z,95808.66
2022-12-20T18:31:05.993Z,95809.97
2022-12-20T18:33:07.773Z,95808.97
2022-12-20T18:35:10.007Z,95798.69
2022-12-20T18:37:11.745Z,95792.06
2022-12-20T18:39:13.935Z,95791.41
2022-12-20T18:41:23.966Z,95800.53
2022-12-20T18:43:27.505Z,95800.16
2022-12-20T18:45:29.255Z,95794.34
2022-12-20T18:47:32.515Z,95802.09
2022-12-20T18:49:35.073Z,95796.25
2022-12-20T18:51:37.369Z,95799.59
2022-12-20T18:53:40.801Z,95792.50
2022-12-20T18:55:43.813Z,95790.81
2022-12-20T18:57:45.532Z,95790.94
2022-12-20T18:59:47.480Z,95791.59
2022-12-20T19:01:49.869Z,95794.59
2022-12-20T19:03:52.701Z,95787.59
2022-12-20T19:05:55.569Z,95785.56
2022-12-20T19:07:57.427Z,95781.47
2022-12-20T19:09:59.180Z,95780.66
2022-12-20T19:12:01.002Z,95776.31
2022-12-20T19:14:03.845Z,95775.41
2022-12-20T19:16:12.081Z,95775.91
2022-12-20T19:18:14.425Z,95781.66
2022-12-20T19:20:16.603Z,95779.81
2022-12-20T19:22:18.531Z,95778.91
2022-12-20T19:24:20.170Z,95783.34
2022-12-20T19:26:24.388Z,95774.25
2022-12-20T19:28:26.223Z,95779.66
2022-12-20T19:30:28.095Z,95778.16
2022-12-20T19:32:29.973Z,95773.44
2022-12-20T19:34:31.658Z,95781.06
2022-12-20T19:36:42.141Z,95772.53
2022-12-20T19:38:45.678Z,95773.72
2022-12-20T19:40:53.930Z,95762.97
2022-12-20T19:42:55.804Z,95766.81
2022-12-20T19:44:57.480Z,95766.50
2022-12-20T19:47:06.046Z,95752.19
2022-12-20T19:49:07.939Z,95751.84
2022-12-20T19:51:15.682Z,95753.28
2022-12-20T19:53:17.386Z,95752.19
2022-12-20T19:55:19.107Z,95761.69
2022-12-20T19:57:20.787Z,95758.13
2022-12-20T19:59:22.796Z,95757.88
2022-12-20T20:01:27.182Z,95761.88
2022-12-20T20:03:30.896Z,95774.81
2022-12-20T20:05:34.944Z,95761.69
2022-12-20T20:07:36.576Z,95762.38
2022-12-20T20:09:38.874Z,95762.31
2022-12-20T20:11:40.761Z,95769.22
2022-12-20T20:13:42.465Z,95764.13
2022-12-20T20:15:50.793Z,95757.22
2022-12-20T20:17:52.502Z,95758.88
2022-12-20T20:19:54.242Z,95755.44
2022-12-20T20:21:56.152Z,95757.13
2022-12-20T20:23:57.858Z,95760.63
2022-12-20T20:26:00.211Z,95756.63
2022-12-20T20:28:02.983Z,95757.34
2022-12-20T20:30:07.101Z,95755.13
2022-12-20T20:32:09.183Z,95751.84
2022-12-20T20:34:10.929Z,95749.34
2022-12-20T20:36:14.457Z,95748.53
2022-12-20T20:38:16.196Z,95744.44
2022-12-20T20:40:18.297Z,95747.59
2022-12-20T20:42:23.400Z,95738.09
2022-12-20T20:44:25.701Z,95733.84
2022-12-20T20:46:28.338Z,95738.09
2022-12-20T20:48:33.424Z,95742.19
2022-12-20T20:50:35.167Z,95744.88
2022-12-20T20:52:36.905Z,95736.16
2022-12-20T20:54:40.029Z,95738.69
2022-12-20T20:56:42.107Z,95743.78
2022-12-20T20:58:43.926Z,95740.44
2022-12-20T21:00:45.569Z,95738.63
2022-12-20T21:02:47.576Z,95738.19
2022-12-20T21:05:14.391Z,95728.84
2022-12-20T21:07:12.810Z,95728.66
2022-12-20T21:09:14.944Z,95734.00
2022-12-20T21:11:17.433Z,95724.91
2022-12-20T21:13:19.389Z,95724.06
2022-12-20T21:15:23.255Z,95728.41
2022-12-20T21:17:25.482Z,95724.94
2022-12-20T21:19:27.118Z,95735.53
2022-12-20T21:21:29.063Z,95727.34
2022-12-20T21:23:30.647Z,95731.28
2022-12-20T21:25:32.636Z,95734.41
2022-12-20T21:27:34.366Z,95736.16
2022-12-20T21:29:36.137Z,95733.34
2022-12-20T21:31:37.788Z,95738.16
2022-12-20T21:33:39.960Z,95734.25
2022-12-20T21:35:45.166Z,95725.34
2022-12-20T21:37:50.135Z,95726.81
2022-12-20T21:39:52.428Z,95722.31
2022-12-20T21:41:59.958Z,95724.50
2022-12-20T21:44:04.672Z,95719.25
2022-12-20T21:46:11.287Z,95716.44
2022-12-20T21:48:15.557Z,95717.13
2022-12-20T21:50:17.259Z,95708.44
2022-12-20T21:52:19.166Z,95714.84
2022-12-20T21:54:20.919Z,95709.75
2022-12-20T21:56:24.330Z,95701.94
2022-12-20T21:58:27.629Z,95707.78
2022-12-20T22:00:30.387Z,95706.09
2022-12-20T22:02:32.206Z,95709.28
2022-12-20T22:04:34.704Z,95704.91
2022-12-20T22:06:36.383Z,95710.94
2022-12-20T22:08:38.105Z,95704.03
2022-12-20T22:10:39.848Z,95702.97
2022-12-20T22:12:41.619Z,95706.16
2022-12-20T22:14:43.282Z,95704.38
2022-12-20T22:16:45.111Z,95706.72
2022-12-20T22:18:51.495Z,95704.25
2022-12-20T22:20:53.280Z,95700.91
2022-12-20T22:22:55.013Z,95700.91
2022-12-20T22:24:56.633Z,95688.81
2022-12-20T22:27:01.992Z,95689.59
2022-12-20T22:29:06.481Z,95683.25
2022-12-20T22:31:09.412Z,95681.34
2022-12-20T22:33:11.770Z,95678.75
2022-12-20T22:35:16.422Z,95671.00
2022-12-20T22:37:22.824Z,95667.44
2022-12-20T22:39:24.558Z,95666.59
2022-12-20T22:41:30.765Z,95661.28
2022-12-20T22:43:32.564Z,95659.94
2022-12-20T22:45:34.369Z,95654.75
2022-12-20T22:47:36.322Z,95652.63
2022-12-20T22:49:38.057Z,95649.97
2022-12-20T22:51:39.743Z,95644.63
2022-12-20T22:53:41.950Z,95639.63
2022-12-20T22:55:43.568Z,95641.13
2022-12-20T22:57:45.190Z,95641.78
2022-12-20T22:59:46.831Z,95631.63
2022-12-20T23:01:48.595Z,95633.28
2022-12-20T23:03:50.651Z,95637.63
2022-12-20T23:05:56.796Z,95634.97
2022-12-20T23:07:58.535Z,95636.75
2022-12-20T23:10:00.373Z,95632.81
2022-12-20T23:12:20.573Z,95631.88
2022-12-20T23:14:41.811Z,95636.28
2022-12-20T23:16:43.688Z,95635.09
2022-12-20T23:18:45.394Z,95634.03
2022-12-20T23:21:11.115Z,95629.63
2022-12-20T23:23:12.766Z,95624.16
2022-12-20T23:25:21.168Z,95627.34
2022-12-20T23:27:22.791Z,95629.06
2022-12-20T23:29:24.691Z,95621.25
2022-12-20T23:31:26.324Z,95613.56
2022-12-20T23:33:28.296Z,95611.09
2022-12-20T23:35:29.949Z,95621.31
2022-12-20T23:37:33.571Z,95610.94
2022-12-20T23:39:35.218Z,95605.69
2022-12-20T23:41:36.901Z,95595.38
2022-12-20T23:43:38.748Z,95601.28
2022-12-20T23:45:40.350Z,95598.59
2022-12-20T23:47:41.999Z,95606.34
2022-12-20T23:49:43.639Z,95601.19
2022-12-20T23:51:45.324Z,95601.94
2022-12-20T23:53:51.191Z,95603.34
2022-12-20T23:56:20.288Z,95610.78
2022-12-20T23:58:21.988Z,95609.16
